Labs

Pokémon
United States
Tournaments

748 tournaments, 748 completed

Alabama
1/21 Saturday
10:00 Clarksville (37042) 3 + 4 + 16 = 23
11:00 Mobile (36618) 3 + 0 + 26 = 29
12:00 Centerville (45458) 3 + 8 + 21 = 32
12:00 Centerville (45458) 3 + 8 + 21 = 32
3:00 Mobile (36618) 0 + 0 + 17 = 17
5:00 Spokane Valley (99216) 4 + 8 + 12 = 24
5:00 Mobile (36618) 0 + 0 + 13 = 13
5:00 Spring (77388) 6 + 7 + 11 = 24
1/22 Sunday
11:00 Albuquerque (87120) 0 + 4 + 12 = 16
3:30 Pinson (35126) 1 + 0 + 7 = 8
6:00 Hobart (46342) 0 + 0 + 14 = 14
1/23 Monday
4:30 Auburn (98002) 3 + 0 + 6 = 9
1/28 Saturday
11:00 Hoover (35216) 5 + 2 + 10 = 17
11:00 Hampton (23669) 2 + 2 + 14 = 18
1/29 Sunday
12:00 Huntsville (35801) 9 + 13 + 26 = 48
12:00 Springfield (45504) 1 + 7 + 8 = 16
Alaska
1/21 Saturday
2:00 Anchorage (99504) 5 + 3 + 15 = 23
7:00 Anchorage (99504) 2 + 1 + 5 = 8
1/22 Sunday
1:00 Fairbanks (99701) 2 + 5 + 14 = 21
1/29 Sunday
2:00 Anchorage (99515) 5 + 3 + 16 = 24
Alberta
1/21 Saturday
10:00 Camrose (T4V 1R1) 2 + 1 + 7 = 10
10:45 St. Albert (T8N 6A7) 5 + 2 + 5 = 12
3:00 Edmonton (T5J 1N9) 2 + 5 + 31 = 38
6:00 Edmonton (T5J 1N9) 0 + 6 + 2 = 8
1/22 Sunday
9:00 Calgary (T2G 5A6) 6 + 8 + 25 = 39
10:00 Edmonton (T5J 3K1) 2 + 3 + 12 = 17
10:45 St. Albert (T8N 6A7) 20 + 6 + 8 = 34
12:00 Red Deer (T4N 1T1) 3 + 3 + 10 = 16
1:45 St. Albert (T8N 6A7) 3 + 2 + 10 = 15
2:00 Edmonton (T5J 3K1) 2 + 5 + 14 = 21
1/27 Friday
5:45 Edmonton (T6B 2H3) 0 + 8 + 18 = 26
1/28 Saturday
10:00 Calgary (T2C 4E4) 7 + 5 + 20 = 32
10:45 St. Albert (T8N 6A7) 11 + 5 + 11 = 27
3:00 Camrose (T4V 3G3) 2 + 1 + 5 = 8
1/29 Sunday
10:45 St. Albert (T8N 6A7) 3 + 2 + 11 = 16
11:00 Edmonton (T5E 4C3) 1 + 7 + 18 = 26
11:30 Calgary (T3C 0K2) 4 + 7 + 23 = 34
12:00 Whitecourt (T7S1P1) 3 + 6 + 7 = 16
Arizona
1/21 Saturday
Tempe (85281) 0 + 1 + 33 = 34
11:00 Tempe (85281) 0 + 1 + 19 = 20
12:00 Phoenix (85028) 0 + 0 + 16 = 16
12:00 Yuma (85364) 0 + 0 + 20 = 20
12:30 Gilbert (85296) 8 + 14 + 46 = 68
12:30 Tempe (85384) 6 + 6 + 17 = 29
4:00 Glendale (85302) 5 + 7 + 36 = 48
6:00 Phoenix (85028) 0 + 2 + 14 = 16
1/22 Sunday
10:00 Tucson (85719) 4 + 3 + 21 = 28
2:00 Glendale (85307) 14 + 7 + 70 = 91
1/24 Tuesday
5:30 Mesa (85204) 3 + 14 + 31 = 48
1/25 Wednesday
4:00 Tempe (85282) 2 + 4 + 42 = 48
1/26 Thursday
5:30 Phoenix (85013) 0 + 2 + 32 = 34
1/28 Saturday
10:00 Tucson (85711) 5 + 9 + 10 = 24
3:00 Gilbert (85295) 14 + 19 + 33 = 66
1/29 Sunday
2:00 Glendale (85306) 11 + 11 + 20 = 42
Arkansas
1/21 Saturday
12:00 Hot Springs (71913) 2 + 6 + 19 = 27
1/28 Saturday
1:00 Rogers (72756) 7 + 9 + 24 = 40
British Columbia
1/21 Saturday
11:00 Abbotsford (V2S2G7) 11 + 6 + 15 = 32
1/22 Sunday
9:00 Fort St. John (V1J 1Y7) 3 + 1 + 4 = 8
1:00 Vancouver (V5K 1Z9) 8 + 7 + 15 = 30
1/27 Friday
4:00 Nanaimo (V9T4K6) 2 + 2 + 11 = 15
4:00 Burnaby (V5H 2C3) 5 + 7 + 12 = 24
1/28 Saturday
11:00 Vancouver (V5R 5W2) 8 + 8 + 15 = 31
1:00 Langley (V3A 4G1) 14 + 5 + 13 = 32
1/29 Sunday
12:00 Surrey (V3T2W1) 12 + 13 + 22 = 47
California
1/21 Saturday
9:30 San Diego (92131) 17 + 14 + 39 = 70
10:00 Bakersfield (93311) 7 + 8 + 41 = 56
10:00 Glendale (91203) 4 + 11 + 21 = 36
10:00 Carmichael (95608) 4 + 2 + 37 = 43
10:00 Montclair (91763) 4 + 8 + 48 = 60
11:00 Elk Grove (95624) 5 + 9 + 42 = 56
11:00 Northridge (91324) 5 + 4 + 31 = 40
11:00 Fresno (93710) 3 + 3 + 35 = 41
11:00 South Gate (90280) 3 + 1 + 25 = 29
11:00 Roseville (95661) 4 + 4 + 12 = 20
11:15 Chula Vista (91911) 7 + 4 + 45 = 56
12:00 Modesto (95350) 4 + 4 + 30 = 38
12:00 Los Angeles (90036) 11 + 11 + 61 = 83
12:00 Merced (95340) 4 + 2 + 15 = 21
12:00 Fountain Valley (92708) 3 + 0 + 13 = 16
12:00 Westminster (92683) 6 + 14 + 32 = 52
12:30 Santa Maria (93454) 0 + 0 + 16 = 16
12:30 Hesperia (92345) 7 + 7 + 18 = 32
1:00 Montclair (91763) 2 + 5 + 23 = 30
1:00 ventura (93003) 3 + 8 + 18 = 29
2:00 Riverside (92503) 3 + 4 + 36 = 43
2:30 Salinas (93906) 1 + 3 + 12 = 16
3:00 Baldwin Park (91706) 0 + 4 + 44 = 48
1/22 Sunday
10:00 santa clara (95050) 26 + 18 + 92 = 136
10:00 Montclair (91763) 2 + 2 + 18 = 22
10:00 Lancaster (93534) 8 + 3 + 32 = 43
10:00 Temecula (92592) 3 + 5 + 41 = 49
11:00 Northridge (91324) 4 + 2 + 16 = 22
11:00 Pasadena (91105) 0 + 4 + 28 = 32
11:00 Berkeley (94704) 5 + 2 + 17 = 24
12:00 Chatsworth (91311) 6 + 4 + 21 = 31
12:00 Santa Monica (90401) 5 + 6 + 5 = 16
12:00 Chatsworth (91311) 3 + 2 + 11 = 16
12:00 Westminster (92683) 0 + 6 + 21 = 27
12:00 Hesperia (92345) 3 + 6 + 14 = 23
12:00 La Habra (90631) 0 + 3 + 13 = 16
12:00 Temecula (92591) 16 + 9 + 23 = 48
12:00 Lower Lake (95457) 1 + 4 + 9 = 14
12:30 Eureka (95501) 5 + 2 + 17 = 24
1:00 Bellflower (90706) 3 + 2 + 24 = 29
1:00 Oceanside (92058) 15 + 11 + 43 = 69
1:30 Burlingame (94010) 7 + 8 + 8 = 23
2:30 Los Angeles (90045) 2 + 2 + 20 = 24
1/24 Tuesday
5:30 San Francisco (94117) 14 + 7 + 27 = 48
1/27 Friday
6:30 Calabasas (91302) 1 + 1 + 9 = 11
1/28 Saturday
10:00 Concord (94520) 3 + 5 + 48 = 56
11:00 Northridge (91324) 1 + 3 + 6 = 10
11:00 Clovis (93612) 4 + 5 + 23 = 32
12:00 Westminster (92683) 1 + 10 + 19 = 30
12:30 Arcata (95521) 1 + 1 + 15 = 17
1/29 Sunday
9:00 Winnetka (91306) 9 + 7 + 32 = 48
11:30 Fresno (93710) 0 + 1 + 23 = 24
12:30 Manteca (95337) 4 + 9 + 30 = 43
3:00 Fremont (94536) 12 + 12 + 48 = 72
Colorado
1/21 Saturday
9:00 Colorado Springs (80918) 12 + 18 + 23 = 53
10:30 Colorado Springs (80918) 6 + 14 + 36 = 56
11:00 pueblo (81001) 0 + 1 + 13 = 14
12:00 Northglenn (80234) 3 + 6 + 40 = 49
12:00 Loveland (80537) 3 + 5 + 2 = 10
3:00 pueblo (81001) 4 + 4 + 10 = 18
3:00 Johnstown (80534) 4 + 7 + 16 = 27
6:30 Fort Collins (80526) 5 + 4 + 20 = 29
1/22 Sunday
10:00 Denver (80203) 4 + 19 + 28 = 51
1:00 Denver (80231) 7 + 9 + 24 = 40
1/28 Saturday
10:00 Colorado Springs (80918) 8 + 11 + 12 = 31
1/29 Sunday
11:00 Aurora (80014) 6 + 15 + 26 = 47
1:00 Fort Collins (80526) 11 + 9 + 20 = 40
Connecticut
1/21 Saturday
12:00 Newington (06111) 3 + 0 + 13 = 16
1/22 Sunday
9:30 Danbury (06810) 7 + 5 + 11 = 23
1:00 Danbury (06810) 4 + 2 + 8 = 14
1/28 Saturday
11:00 Manchester (06040) 6 + 5 + 22 = 33
Delaware
1/21 Saturday
1:00 dover (19904) 2 + 2 + 12 = 16
1/28 Saturday
10:00 Wilmington (19810) 4 + 19 + 31 = 54
12:30 Wilmington (19810) 3 + 2 + 27 = 32
Florida
1/20 Friday
5:00 OCALA (34474) 2 + 1 + 11 = 14
1/21 Saturday
9:00 Gainesville (32606) 0 + 1 + 7 = 8
9:00 West Melbourne (32904) 10 + 7 + 24 = 41
10:00 West Palm Beach (33415) 5 + 3 + 21 = 29
10:00 Plantation (33317) 3 + 2 + 18 = 23
10:00 Orlando (32828) 5 + 8 + 17 = 30
10:00 Auburndale (33823) 8 + 0 + 13 = 21
10:00 Orlando (32828) 8 + 4 + 20 = 32
11:00 Cape Coral (33990) 2 + 5 + 25 = 32
11:00 Tampa (33614) 6 + 13 + 62 = 81
11:00 Spring Hill (34609) 0 + 0 + 8 = 8
12:00 Ocala (34471) 3 + 11 + 10 = 24
1:00 Sanford (32771) 5 + 6 + 7 = 18
1:30 Palm Bay (32905) 1 + 0 + 9 = 10
3:30 Davie (33024) 3 + 3 + 28 = 34
6:00 Jacksonville (32244) 3 + 3 + 27 = 33
1/22 Sunday
10:00 West Palm Beach (33415) 3 + 1 + 25 = 29
10:30 Tampa (33617) 7 + 13 + 60 = 80
11:00 Fort Myers (33908) 2 + 3 + 15 = 20
11:00 Orlando (32803) 7 + 2 + 23 = 32
12:00 Tallahassee (32303) 0 + 3 + 14 = 17
12:00 HOLLYWOOD (33024) 2 + 2 + 19 = 23
12:00 Sarasota (34232) 7 + 5 + 38 = 50
12:00 Pensacola (32503) 0 + 3 + 23 = 26
1:00 West Palm Beach (33409) 11 + 5 + 12 = 28
1:30 Jensen beach (34957) 2 + 1 + 5 = 8
2:30 Tallahassee (32303) 2 + 2 + 11 = 15
3:30 Sarasota (34232) 2 + 2 + 6 = 10
1/27 Friday
5:00 Panama City (32405) 2 + 0 + 21 = 23
1/28 Saturday
10:00 Plantation (33317) 4 + 2 + 12 = 18
11:00 Port St John (32927) 3 + 2 + 11 = 16
11:00 Lauderhill (33351) 2 + 5 + 12 = 19
12:00 Maitland (32751) 11 + 12 + 49 = 72
12:00 lakeland (33809) 1 + 3 + 4 = 8
1/29 Sunday
10:30 Winter Park (32792) 3 + 4 + 20 = 27
1:00 West Palm Beach (33409) 4 + 3 + 10 = 17
1:30 Miami (33183) 5 + 11 + 40 = 56
Georgia
1/21 Saturday
9:00 Columbus (31909) 3 + 2 + 11 = 16
11:00 Kennesaw (30144) 1 + 7 + 37 = 45
11:00 Carrollton (30117) 3 + 1 + 4 = 8
11:00 Flowery Branch (30542) 2 + 1 + 9 = 12
12:00 Cumming (30040) 4 + 14 + 24 = 42
12:00 Canton (30114) 4 + 1 + 3 = 8
12:00 Duluth (30096) 15 + 7 + 58 = 80
1:30 Valdosta (31601) 3 + 2 + 21 = 26
3:00 Flowery Branch (30542) 1 + 0 + 11 = 12
3:45 Macon (31206) 2 + 0 + 10 = 12
4:30 Valdosta (31601) 0 + 0 + 10 = 10
5:00 Athens (30606) 3 + 6 + 20 = 29
1/22 Sunday
10:00 Roswell (30076) 6 + 9 + 28 = 43
11:00 Warner Robins (31088) 7 + 4 + 12 = 23
12:00 Newnan (30263) 8 + 6 + 15 = 29
1:00 Valdosta (31601) 0 + 0 + 8 = 8
3:00 Roswell (30076) 4 + 8 + 9 = 21
1/25 Wednesday
4:00 Dallas (30157) 7 + 4 + 17 = 28
1/28 Saturday
11:00 Augusta (30907) 6 + 2 + 20 = 28
11:00 Valdosta (31601) 1 + 2 + 5 = 8
12:00 Roswell (30076) 7 + 19 + 24 = 50
1/29 Sunday
11:00 Kennesaw (30144) 3 + 2 + 37 = 42
Hawaii
1/21 Saturday
12:00 Honolulu (96826) 1 + 5 + 17 = 23
3:00 Honolulu (96826) 2 + 6 + 13 = 21
1/22 Sunday
12:00 Honolulu (96826) 1 + 5 + 15 = 21
3:00 Honolulu (96826) 2 + 3 + 19 = 24
1/28 Saturday
12:00 Honolulu (96817) 7 + 4 + 34 = 45
3:00 Honolulu (96817) 0 + 1 + 15 = 16
1/29 Sunday
12:00 Honolulu (96826) 5 + 4 + 12 = 21
3:00 Honolulu (96826) 1 + 1 + 8 = 10
Idaho
1/22 Sunday
11:00 nampa (83651) 0 + 5 + 17 = 22
1/29 Sunday
11:00 Meridian (83642) 7 + 5 + 20 = 32
11:15 Boise (83709) 6 + 6 + 12 = 24
Illinois
1/21 Saturday
9:00 Berwyn (60402) 12 + 7 + 30 = 49
9:00 Loves Park (61111) 2 + 5 + 13 = 20
10:00 Chicago (60611) 0 + 1 + 7 = 8
12:00 Loves Park (61111) 6 + 12 + 21 = 39
12:00 Collinsville (62234) 6 + 5 + 28 = 39
12:00 Chicago (60641) 3 + 0 + 13 = 16
12:00 Carbondale (62901) 0 + 1 + 7 = 8
1:00 Berwyn (60402) 5 + 10 + 28 = 43
2:00 Lindenhurst (60046) 2 + 1 + 18 = 21
2:00 Collinsville (62234) 1 + 4 + 6 = 11
2:00 Glenview (60025) 6 + 5 + 5 = 16
2:00 McHenry (60050-4036) 3 + 2 + 15 = 20
1/22 Sunday
9:00 Berwyn (60402) 4 + 2 + 18 = 24
12:00 Rockford (61108) 8 + 5 + 6 = 19
1:00 Berwyn (60402) 9 + 14 + 41 = 64
2:00 Lindenhurst (60046) 5 + 1 + 10 = 16
4:00 Rockford (61108) 4 + 1 + 3 = 8
1/23 Monday
5:00 Niles (60714) 27 + 18 + 32 = 77
5:00 Chicago (60618) 3 + 3 + 13 = 19
1/25 Wednesday
3:00 Loves Park (61111) 1 + 2 + 9 = 12
1/26 Thursday
5:00 Berwyn (60402) 2 + 0 + 15 = 17
1/27 Friday
5:00 Lindenhurst (60046) 2 + 0 + 9 = 11
6:00 McHenry (60050-4036) 2 + 0 + 9 = 11
1/28 Saturday
9:00 Berwyn (60402) 8 + 4 + 15 = 27
10:00 Chicago (60611) 2 + 0 + 6 = 8
11:00 Chicago (60618) 6 + 1 + 1 = 8
2:00 Edwardsville (62025) 6 + 5 + 13 = 24
3:00 Chicago (60618) 0 + 0 + 24 = 24
3:00 McHenry (60050-4036) 0 + 0 + 8 = 8
1/29 Sunday
9:00 Berwyn (60402) 4 + 3 + 25 = 32
12:00 Buffalo Grove (60089) 13 + 17 + 18 = 48
12:00 Troy (62294) 7 + 4 + 5 = 16
12:30 Brookfield (60513) 10 + 5 + 1 = 16
1:00 Berwyn (60402) 13 + 5 + 34 = 52
1:00 McHenry (60050-4036) 9 + 2 + 6 = 17
Indiana
1/21 Saturday
10:00 Indianapolis (46227) 2 + 6 + 12 = 20
11:00 Indianapolis (46225) 1 + 3 + 14 = 18
12:00 Elkhart (46514) 4 + 0 + 11 = 15
1:00 Anderson (46013) 0 + 1 + 7 = 8
5:00 Indianapolis (46250) 10 + 13 + 40 = 63
5:00 Evansville (47711) 9 + 5 + 16 = 30
5:00 Connersville (47331) 0 + 0 + 12 = 12
6:00 Valparaiso (46383) 3 + 5 + 16 = 24
7:00 Evansville (47711) 8 + 6 + 17 = 31
1/22 Sunday
11:00 Portage (46368) 3 + 2 + 17 = 22
11:00 Fort Wayne (46804) 0 + 9 + 13 = 22
12:00 Evansville (47711) 0 + 3 + 5 = 8
12:00 Indianapolis (46225) 1 + 1 + 13 = 15
12:30 Indianapolis (46250) 11 + 5 + 18 = 34
12:30 Indianapolis (46227) 8 + 4 + 25 = 37
2:00 Evansville (47711) 0 + 3 + 5 = 8
3:00 Indianapolis (46225) 0 + 0 + 8 = 8
4:55 South Bend (46637) 1 + 5 + 10 = 16
1/23 Monday
2:30 Anderson (46012) 1 + 3 + 8 = 12
5:30 Indianapolis (46227) 4 + 2 + 24 = 30
1/24 Tuesday
5:30 Mooresville (46158) 3 + 9 + 6 = 18
1/27 Friday
5:00 Evansville (47711) 9 + 1 + 6 = 16
7:00 Evansville (47711) 2 + 1 + 5 = 8
1/28 Saturday
10:00 Bloomington (47403) 1 + 4 + 6 = 11
11:00 Indianapolis (46225) 1 + 1 + 13 = 15
2:00 Evansville (47711) 0 + 1 + 9 = 10
3:00 Evansville (47711) 0 + 0 + 10 = 10
1/29 Sunday
12:00 Indianapolis (46225) 0 + 1 + 13 = 14
12:00 Evansville (47711) 0 + 2 + 6 = 8
1:00 Indianapolis (46256) 17 + 8 + 7 = 32
2:00 Evansville (47711) 1 + 1 + 6 = 8
2:00 Indianapolis (46225) 0 + 0 + 8 = 8
Iowa
1/21 Saturday
10:00 Ames (50014) 6 + 17 + 24 = 47
1/22 Sunday
11:00 Des Moines (50325) 13 + 12 + 55 = 80
Kansas
1/21 Saturday
12:15 Lenexa (66210) 1 + 4 + 5 = 10
2:00 Leavenworth (66048) 13 + 10 + 9 = 32
2:30 Lenexa (66210) 10 + 9 + 20 = 39
11:00 Lenexa (66210) 1 + 4 + 23 = 28
1/22 Sunday
12:15 Lenexa (66210) 4 + 6 + 9 = 19
2:15 Lenexa (66210) 8 + 10 + 24 = 42
Kentucky
1/21 Saturday
10:00 Owensboro (42301) 2 + 4 + 10 = 16
2:00 Paducah (42001) 1 + 0 + 7 = 8
1/22 Sunday
11:00 Owensboro (42301) 0 + 5 + 8 = 13
2:00 Paducah (42001) 1 + 0 + 9 = 10
1/29 Sunday
2:00 Louisville (40220) 13 + 18 + 39 = 70
Louisiana
1/21 Saturday
12:00 Prairieville (70769) 5 + 2 + 17 = 24
5:00 Metairie (70003) 1 + 1 + 6 = 8
1/22 Sunday
12:00 Baton Rouge (70817) 8 + 0 + 0 = 8
12:00 Shreveport (71105) 5 + 2 + 9 = 16
2:00 Alexandria (71301) 1 + 2 + 9 = 12
1/29 Sunday
1:00 Metairie (70006) 5 + 6 + 37 = 48
Maine
1/21 Saturday
11:00 Presque Isle (04769) 1 + 4 + 14 = 19
1/22 Sunday
12:00 Westbrook (04092) 7 + 13 + 28 = 48
1/29 Sunday
11:00 Augusta (04330) 14 + 9 + 17 = 40
Manitoba
1/21 Saturday
11:00 Winnipeg (R3L2C2) 4 + 3 + 31 = 38
11:00 Winnipeg (R2G 1L4) 4 + 7 + 17 = 28
1/29 Sunday
12:00 Winnipeg (R2V 3C4) 0 + 8 + 12 = 20
Maryland
1/21 Saturday
12:00 Abingdon (21009) 3 + 0 + 13 = 16
1/22 Sunday
11:00 Rockville (20852) 9 + 16 + 51 = 76
12:00 California (20619) 16 + 10 + 22 = 48
12:00 Hunt Valley ( 21030) 5 + 3 + 8 = 16
4:00 California (20619) 1 + 0 + 8 = 9
1/29 Sunday
11:00 Rockville (20852) 12 + 14 + 28 = 54
2:00 Rockville (20852) 3 + 3 + 10 = 16
Massachusetts
1/21 Saturday
9:30 Lexington (02421) 8 + 12 + 20 = 40
12:00 BROCKTON (02302) 5 + 5 + 15 = 25
2:00 Somerville (02144) 5 + 13 + 22 = 40
1/22 Sunday
10:00 New Bedford (02745) 5 + 12 + 15 = 32
11:00 Brookline (02446) 3 + 5 + 13 = 21
11:00 Hadley (01035) 2 + 1 + 28 = 31
1/28 Saturday
10:00 Tewksbury (01876) 1 + 2 + 13 = 16
10:00 CARVER (02330) 8 + 7 + 9 = 24
11:30 Abington (02351) 6 + 6 + 10 = 22
1/29 Sunday
11:30 Norton (02766) 13 + 11 + 25 = 49
Michigan
1/21 Saturday
11:00 Burton (48529) 5 + 6 + 21 = 32
11:00 Garden City (48135) 3 + 3 + 20 = 26
11:00 Ludington (49431) 0 + 0 + 10 = 10
12:00 Clinton Township (48038) 13 + 13 + 60 = 86
12:00 Marquette (49855) 0 + 0 + 12 = 12
12:00 Howell (48843) 6 + 6 + 11 = 23
3:00 Bay City (48706) 2 + 3 + 18 = 23
1/22 Sunday
livonia (48154) 5 + 1 + 10 = 16
11:00 Canton (48187) 7 + 7 + 25 = 39
1/25 Wednesday
6:00 Garden City (48135) 2 + 1 + 29 = 32
1/28 Saturday
11:00 Garden City (48135) 4 + 5 + 17 = 26
12:00 Howell (48843) 0 + 0 + 8 = 8
1:00 Grand Rapids (49534) 7 + 8 + 41 = 56
1/29 Sunday
11:00 Tecumseh (49286) 2 + 3 + 17 = 22
11:00 Burton (48529) 3 + 5 + 9 = 17
Minnesota
1/21 Saturday
10:00 Duluth (55807) 5 + 9 + 17 = 31
12:00 Morris (56267) 1 + 6 + 17 = 24
12:00 Minneapolis (55406) 7 + 9 + 28 = 44
12:00 Winona (55987) 5 + 4 + 15 = 24
1/22 Sunday
12:00 Saint Louis Park (55426) 8 + 25 + 19 = 52
12:00 Cambridge (55008) 1 + 5 + 10 = 16
1/23 Monday
6:00 Columbia Heights (55421) 2 + 1 + 6 = 9
1/27 Friday
5:00 Maplewood (55109) 6 + 6 + 35 = 47
1/28 Saturday
11:00 South St Paul (55075) 2 + 11 + 38 = 51
11:00 St Cloud (56301) 2 + 2 + 11 = 15
12:00 Burnsville (55337) 5 + 11 + 24 = 40
12:00 Waite park (56387) 0 + 0 + 16 = 16
4:00 Moorhead (56560) 1 + 1 + 14 = 16
1/29 Sunday
12:00 Coon Rapids (55448) 10 + 7 + 14 = 31
Mississippi
1/20 Friday
Pearl (39208) 0 + 2 + 7 = 9
1/21 Saturday
12:00 Pearl (39208) 3 + 6 + 15 = 24
1:00 Ridgeland (39157) 6 + 1 + 9 = 16
10:10 Pearl (39208) 0 + 0 + 8 = 8
1/22 Sunday
12:00 Long Beach (39560) 2 + 5 + 20 = 27
2:00 Pearl (39208) 0 + 5 + 17 = 22
1/28 Saturday
10:00 Hattiesburg (39402) 3 + 4 + 10 = 17
12:00 Ridgeland (39157) 3 + 0 + 5 = 8
3:00 Pearl (39208) 0 + 2 + 12 = 14
1/29 Sunday
2:30 Pearl (39208) 0 + 3 + 12 = 15
6:00 Ridgeland (39157) 5 + 1 + 10 = 16
7:00 Ridgeland (39157) 2 + 2 + 4 = 8
Missouri
1/21 Saturday
12:01 Independence (64050-3705) 1 + 1 + 23 = 25
9:00 Slater (65349) 8 + 8 + 8 = 24
12:00 Springfield (65804) 8 + 7 + 14 = 29
12:00 ofallon (63366) 7 + 14 + 27 = 48
1:45 Sedalia (65301) 5 + 4 + 21 = 30
2:30 Independence (64050-3705) 10 + 4 + 23 = 37
5:00 Independence (64050-3705) 0 + 0 + 18 = 18
6:00 Springfield (65804) 3 + 6 + 25 = 34
1/22 Sunday
12:00 Springfield (65804) 7 + 3 + 22 = 32
1:00 Crestwood (63126) 16 + 26 + 49 = 91
1/24 Tuesday
9:00 St. Peters (63376) 9 + 6 + 17 = 32
1/25 Wednesday
6:30 Crestwood (63126) 12 + 12 + 44 = 68
1/28 Saturday
12:00 Saint Louis (63128) 5 + 10 + 16 = 31
12:30 Sedalia (65301-4331) 1 + 4 + 11 = 16
Montana
1/21 Saturday
11:00 Great Falls (59401) 1 + 2 + 10 = 13
6:00 Missoula (59801) 4 + 3 + 16 = 23
Nebraska
1/22 Sunday
12:00 Lincoln (68506) 9 + 4 + 15 = 28
1/24 Tuesday
6:00 Bellevue (68005) 4 + 7 + 21 = 32
1/28 Saturday
10:00 McCook (69001) 5 + 2 + 7 = 14
12:00 North Platte (69101) 2 + 6 + 3 = 11
1/29 Sunday
12:00 Omaha (68144) 7 + 18 + 30 = 55
12:01 Kearney (68845) 3 + 6 + 18 = 27
Nevada
1/21 Saturday
10:00 Las Vegas (89147) 2 + 9 + 56 = 67
4:30 Reno (89502) 1 + 7 + 24 = 32
1/22 Sunday
1:00 Las Vegas (89121) 3 + 2 + 56 = 61
1/28 Saturday
10:00 Las Vegas (89147) 4 + 0 + 33 = 37
1:00 Las Vegas (89146) 1 + 2 + 13 = 16
New Brunswick
1/21 Saturday
11:00 Saint John (E2L2H3) 11 + 9 + 27 = 47
1/28 Saturday
11:00 Saint John (E2M 7X1) 1 + 3 + 12 = 16
1/29 Sunday
12:30 Fredericton (E3B 3B9) 4 + 4 + 13 = 21
New Hampshire
1/22 Sunday
10:15 Rochester (03867) 5 + 12 + 14 = 31
11:00 Manchester (03103) 6 + 6 + 24 = 36
1/28 Saturday
10:00 Nashua (03063) 10 + 15 + 31 = 56
1/29 Sunday
10:00 Lebanon (03766) 0 + 0 + 8 = 8
New Jersey
1/21 Saturday
Clifton (07012 ) 1 + 0 + 31 = 32
10:00 Scotch Plains (07076) 9 + 22 + 19 = 50
10:00 Matawan (07747) 7 + 11 + 25 = 43
12:00 Franklin (07416) 0 + 1 + 7 = 8
12:30 Livingston (07039) 15 + 16 + 17 = 48
1/22 Sunday
11:00 Egg Harbor Township (08234) 7 + 10 + 15 = 32
12:00 Somerville (08876) 11 + 18 + 24 = 53
1:15 Morris Plains (07950) 9 + 10 + 16 = 35
2:30 Morris Plains (07950) 4 + 2 + 4 = 10
1/27 Friday
Boonton (07005) 18 + 10 + 20 = 48
6:00 Cinnaminson (08077) 8 + 5 + 32 = 45
1/28 Saturday
11:00 Hamilton (08619) 14 + 11 + 12 = 37
1/29 Sunday
12:00 Randolph (07869) 5 + 6 + 12 = 23
New Mexico
1/21 Saturday
10:00 Albuquerque (87120) 1 + 6 + 33 = 40
1/28 Saturday
10:00 Albuquerque (87106) 4 + 7 + 26 = 37
New York
1/21 Saturday
9:00 Fredonia (14063) 3 + 1 + 12 = 16
10:00 massapequa park (11762) 3 + 13 + 21 = 37
10:29 New York (10016) 3 + 13 + 36 = 52
11:00 Watervilet (12189) 6 + 6 + 35 = 47
12:00 Kenmore (14217) 5 + 7 + 21 = 33
12:00 poughkeepsie (12601) 14 + 17 + 9 = 40
12:00 West Babylon (11704) 8 + 2 + 20 = 30
1:00 Johnson City (13790) 0 + 1 + 14 = 15
2:00 Oneida (13421) 4 + 5 + 15 = 24
2:29 New York (10016) 4 + 7 + 35 = 46
3:00 CROTON ON HUDSON (10520) 11 + 17 + 16 = 44
3:00 Middletown (10940) 1 + 0 + 7 = 8
3:00 West Babylon (11704) 3 + 1 + 6 = 10
3:00 Troy (12180) 1 + 0 + 7 = 8
1/22 Sunday
9:00 Glen Cove (11542) 28 + 4 + 0 = 32
10:00 Catskill (12414) 3 + 8 + 23 = 34
12:00 Lynbrook (11563) 6 + 9 + 9 = 24
12:00 Kenmore (14217) 1 + 3 + 4 = 8
12:00 East Greenbush (12061) 9 + 2 + 13 = 24
12:29 Forest Hills (11375) 4 + 4 + 16 = 24
1:00 Wantagh (11793) 5 + 8 + 11 = 24
2:00 Selden (11784) 2 + 5 + 16 = 23
1/28 Saturday
9:00 Williamsville (14221) 3 + 3 + 10 = 16
12:00 Rochester (14623) 9 + 3 + 32 = 44
12:00 Albany (12205) 3 + 6 + 23 = 32
3:00 CROTON ON HUDSON (10520) 4 + 7 + 9 = 20
6:00 Amsterdam (12010) 0 + 0 + 8 = 8
1/29 Sunday
11:00 Brooklyn (11229) 9 + 10 + 21 = 40
12:00 Clifton Park (12065) 8 + 5 + 11 = 24
12:00 Nanuet (10954) 6 + 9 + 9 = 24
2:00 Hyde Park (12538) 1 + 4 + 11 = 16
North Carolina
1/21 Saturday
Matthews (28105) 0 + 0 + 8 = 8
10:30 Charlotte (28214) 5 + 2 + 11 = 18
11:00 Cornelius (28031) 10 + 9 + 5 = 24
11:00 Greenville (27858) 6 + 2 + 19 = 27
11:00 High Point (27263) 3 + 3 + 25 = 31
11:00 Matthews (28105) 2 + 5 + 4 = 11
12:00 Asheville (28805) 3 + 9 + 9 = 21
12:00 Hickory (28602) 1 + 3 + 9 = 13
1:00 Jacksonville (28546) 2 + 1 + 14 = 17
2:00 Charlotte (28214) 5 + 4 + 15 = 24
1/22 Sunday
11:00 Durham (27707) 8 + 8 + 38 = 54
12:01 Kannapolis (28083) 8 + 2 + 19 = 29
2:00 Wilmington (28403) 7 + 14 + 32 = 53
2:00 Charlotte (28214) 8 + 2 + 13 = 23
1/28 Saturday
10:15 Matthews (28105) 2 + 4 + 6 = 12
11:30 Statesville (28625) 4 + 3 + 17 = 24
12:00 Gastonia (28056) 3 + 1 + 7 = 11
North Dakota
1/21 Saturday
10:00 Fargo (58102) 3 + 4 + 11 = 18
1:00 Fargo (58102) 2 + 7 + 9 = 18
1/26 Thursday
5:30 Fargo (58103) 0 + 4 + 13 = 17
Nova Scotia
1/21 Saturday
9:00 YARMOUTH (B5A 1E6) 0 + 0 + 12 = 12
1/22 Sunday
12:00 Sydney (B1S 1P4) 4 + 2 + 10 = 16
Ohio
1/21 Saturday
10:00 North Olmsted (44070) 13 + 18 + 47 = 78
11:00 Columbus (43210) 2 + 0 + 19 = 21
11:00 Cuyahoga Falls (44222) 4 + 3 + 31 = 38
11:00 Toledo (43617) 0 + 3 + 10 = 13
12:20 Streetsboro (44241) 3 + 0 + 11 = 14
1:30 Columbus (43210) 0 + 1 + 23 = 24
3:00 Findlay (45840) 5 + 13 + 26 = 44
3:30 Strongsville (44136) 5 + 5 + 28 = 38
4:00 Columbus (43210) 0 + 2 + 7 = 9
5:00 Ashtabula (44004) 6 + 4 + 30 = 40
7:00 Dayton (45419) 3 + 4 + 21 = 28
1/22 Sunday
10:00 Columbus (43214) 4 + 6 + 18 = 28
12:00 Mansfield (44907) 0 + 0 + 8 = 8
12:00 Sylvania (43560) 1 + 1 + 26 = 28
12:15 Alliance (44601) 10 + 6 + 10 = 26
1/23 Monday
5:00 Green (44685) 2 + 6 + 26 = 34
1/24 Tuesday
5:00 Canton (44718) 4 + 8 + 22 = 34
1/25 Wednesday
5:15 Sheffield Village (44035-1439) 6 + 4 + 22 = 32
1/26 Thursday
5:15 Medina (44256) 3 + 0 + 13 = 16
1/28 Saturday
10:00 Akron (44325) 0 + 5 + 14 = 19
11:00 Newark (43055) 1 + 4 + 11 = 16
12:00 Dublin (43017) 9 + 15 + 34 = 58
2:00 Akron (44325) 1 + 3 + 25 = 29
1/29 Sunday
11:00 Kettering (45429) 6 + 15 + 62 = 83
11:00 Dublin (43017) 5 + 3 + 14 = 22
11:00 Sandusky (44870) 2 + 2 + 10 = 14
12:00 Kent (44243) 0 + 4 + 18 = 22
12:00 Sylvania (43560) 6 + 3 + 28 = 37
1:00 dayton (45431) 3 + 6 + 19 = 28
4:00 Newbury (44065) 0 + 0 + 8 = 8
Oklahoma
1/21 Saturday
10:00 Oklahoma City (73139) 5 + 9 + 40 = 54
12:00 Jenks (74037) 10 + 6 + 24 = 40
1/28 Saturday
3:00 Norman (73069) 4 + 3 + 16 = 23
1/29 Sunday
12:00 Tulsa (74133) 9 + 13 + 50 = 72
Ontario
1/21 Saturday
9:00 Oshawa (L1G 1K6) 12 + 15 + 19 = 46
9:30 Brampton (L6Z 1R3) 7 + 6 + 10 = 23
10:00 oakville (L6K 2G3) 8 + 13 + 11 = 32
10:15 Toronto (M4Y1X9) 7 + 13 + 65 = 85
10:30 Windsor (N8W 1C2) 4 + 4 + 16 = 24
11:00 Orangeville (L9W 1K2) 6 + 5 + 14 = 25
11:15 Toronto (Scarborough) (M1V 1K4) 6 + 7 + 18 = 31
11:30 Mississauga (L5L 3A2) 7 + 13 + 26 = 46
12:00 Ottawa (K2J 5G4) 11 + 4 + 15 = 30
12:00 Ridgeland (39157) 6 + 1 + 9 = 16
12:00 Burlington (L7R 2E4) 11 + 6 + 12 = 29
1:00 Thunder Bay (P7B 1K3) 1 + 7 + 8 = 16
1:30 Vaughan (L4J7Y3) 2 + 3 + 11 = 16
2:00 North Bay (P1A2A5) 2 + 3 + 11 = 16
5:00 Toronto (M4E1E8) 7 + 10 + 6 = 23
1/22 Sunday
12:30 Windsor (N8W 1C2) 4 + 9 + 19 = 32
9:30 Brampton (L6Z 1R3) 8 + 12 + 11 = 31
11:00 Saint Catharines ( L2R 3N7) 2 + 9 + 15 = 26
11:15 Toronto (Scarborough) (M1V 1K4) 11 + 8 + 23 = 42
11:30 Brampton (L6Y 1N7) 16 + 8 + 42 = 66
12:00 Ottawa (K1K 3B7) 5 + 8 + 13 = 26
12:00 Thunder Bay (P7C 4S4) 11 + 9 + 12 = 32
1:30 Vaughan (L4J7Y3) 1 + 3 + 12 = 16
1/25 Wednesday
5:00 Guelph (N1H7T8) 3 + 3 + 13 = 19
1/28 Saturday
10:00 Cambridge (N3H4W5) 4 + 1 + 16 = 21
11:00 MISSISSAUGA (L5A 3Y1) 11 + 9 + 18 = 38
1/29 Sunday
11:00 Waterloo (N2L 6L7) 7 + 4 + 30 = 41
11:00 Grimsby (L3M1R4) 8 + 6 + 7 = 21
11:00 Saint Catharines ( L2R 3N7) 1 + 1 + 6 = 8
11:00 Brampton (L6Y 1L9) 4 + 8 + 10 = 22
11:30 Barrie (L4M 6J4) 5 + 0 + 27 = 32
11:30 Kingston (K7L-1G2) 7 + 3 + 22 = 32
12:00 London (N6E3M2) 2 + 11 + 19 = 32
12:00 Milton (L9T 5B2) 3 + 7 + 12 = 22
12:00 Hamilton (L8S 1K5) 2 + 3 + 15 = 20
Oregon
1/21 Saturday
1:00 Salem (97306) 7 + 13 + 13 = 33
9:30 Aloha (97003) 12 + 13 + 19 = 44
10:00 Bend (97702) 2 + 9 + 15 = 26
11:00 Springfield (97477) 0 + 3 + 5 = 8
1:00 Milwaukie (97267) 10 + 15 + 45 = 70
6:00 Portland (97214) 10 + 13 + 54 = 77
1/22 Sunday
11:00 Salem (97301) 4 + 3 + 11 = 18
12:30 Eugene (97402) 1 + 3 + 10 = 14
1:00 Portland (97213) 3 + 5 + 6 = 14
1/23 Monday
5:00 Salem (97301) 5 + 7 + 12 = 24
1/24 Tuesday
5:30 Milwaukie (97032) 3 + 13 + 17 = 33
6:00 Springfield (97477) 3 + 1 + 14 = 18
1/28 Saturday
10:30 Portland (97202) 23 + 8 + 0 = 31
Pennsylvania
1/21 Saturday
11:00 Monroeville (15146) 12 + 6 + 22 = 40
12:00 Indiana (15701) 0 + 0 + 8 = 8
12:00 East Norriton (19401) 14 + 14 + 36 = 64
12:00 Bethel Park (15102) 7 + 13 + 36 = 56
2:30 East Norriton (19401) 7 + 7 + 34 = 48
3:00 Lancaster (17603) 4 + 1 + 19 = 24
1/22 Sunday
11:00 Boyertown (19512) 5 + 8 + 12 = 25
12:00 West Mifflin (15123) 5 + 3 + 29 = 37
12:00 York (17402) 12 + 6 + 30 = 48
12:00 New Holland (17557) 8 + 4 + 20 = 32
1:00 Stroudsburg (18360) 9 + 7 + 38 = 54
1/25 Wednesday
4:00 Pittsburgh (15232) 8 + 4 + 19 = 31
1/28 Saturday
10:00 Lancaster (17603) 17 + 12 + 56 = 85
12:00 Altoona (16602) 4 + 5 + 15 = 24
1:00 State College (16801) 6 + 7 + 21 = 34
1:00 Altoona (16602) 1 + 3 + 11 = 15
1/29 Sunday
4:00 sharon (16146) 3 + 7 + 19 = 29
11:30 Tarentum (15084) 2 + 2 + 27 = 31
12:00 Holmes (19043 ) 11 + 18 + 32 = 61
1:00 Grove City (16127) 4 + 2 + 10 = 16
Puerto Rico
1/21 Saturday
12:00 Caguas (00725) 3 + 9 + 60 = 72
1/29 Sunday
1:00 Ponce (00717) 1 + 1 + 14 = 16
Quebec
1/21 Saturday
9:00 Saint-Jean-sur-Richelieu (J3B 2J7) 1 + 0 + 11 = 12
9:30 joliette (J6E 5E8) 3 + 3 + 18 = 24
10:00 Sainte Thérèse (J7E2X5) 2 + 5 + 20 = 27
10:00 Montréal ( H3B 1H5) 0 + 0 + 13 = 13
11:00 Chateauguay (J6K 1C4) 1 + 1 + 15 = 17
11:30 Sherbrooke (J1H 1P4) 8 + 4 + 3 = 15
12:00 Salaberry-de-Valleyfield (J6T 1P1) 0 + 0 + 8 = 8
12:00 Montreal (H2K2H9) 3 + 0 + 11 = 14
2:30 montreal (H4G 1W5) 1 + 0 + 7 = 8
4:30 Sainte Thérèse (J7E2X5) 1 + 4 + 19 = 24
5:30 Gatineau (J8X 4H4) 0 + 1 + 17 = 18
1/22 Sunday
10:00 Sherbrooke (J1G 1B6) 1 + 0 + 15 = 16
10:00 Montréal ( H3B 1H5) 3 + 2 + 8 = 13
10:30 Gatineau (J8T 6H5) 3 + 6 + 22 = 31
11:00 Montreal (H2S 2M2) 5 + 4 + 11 = 20
11:00 Verdun (H4G1W6) 2 + 1 + 22 = 25
12:00 Chateauguay (J6K 3J9) 4 + 5 + 12 = 21
12:30 Saint-Jerome (J7Z5B8) 5 + 1 + 18 = 24
1:00 Gatineau (J8T 6H5) 0 + 0 + 8 = 8
1:30 montreal (H4G 1W5) 0 + 0 + 9 = 9
1/24 Tuesday
5:00 Montréal ( H3B 1H5) 1 + 0 + 17 = 18
5:30 Ste-Therese (J7E3H4) 2 + 1 + 11 = 14
1/25 Wednesday
5:30 Chateauguay (J6K 1C4) 4 + 2 + 6 = 12
6:00 Montreal (H3L 2E8) 0 + 0 + 10 = 10
1/27 Friday
6:00 Montreal (H3L 2E8) 1 + 0 + 13 = 14
1/28 Saturday
10:00 Montréal ( H3B 1H5) 4 + 2 + 9 = 15
11:30 Québec (G1K 3B9) 0 + 0 + 13 = 13
5:00 Longueuil (J4K 2C5) 6 + 4 + 34 = 44
1/29 Sunday
10:00 Montréal ( H3B 1H5) 1 + 1 + 7 = 9
10:30 Gatineau (J8T 6H5) 2 + 2 + 12 = 16
11:00 Ste-Therese (J7E3H4) 3 + 0 + 26 = 29
11:00 Verdun (H4G1W6) 1 + 0 + 15 = 16
12:00 Trois-Rivières (G8Z 3W2) 2 + 3 + 13 = 18
12:00 Chateauguay (J6K 3J9) 2 + 2 + 7 = 11
12:30 Saint-Jerome (J7Z5B8) 1 + 1 + 6 = 8
1:00 Montreal (H3L 2E8) 4 + 6 + 14 = 24
1:30 montreal (H4G 1W5) 3 + 1 + 3 = 7
Rhode Island
1/28 Saturday
12:00 Pawtucket (02860) 8 + 7 + 17 = 32
Saskatchewan
1/21 Saturday
12:00 Saskatoon (S7H 2P6) 0 + 4 + 28 = 32
South Carolina
1/20 Friday
12:00 Myrtle Beach (29588) 14 + 12 + 23 = 49
1/21 Saturday
1:00 Anderson (29621) 4 + 5 + 11 = 20
1/22 Sunday
12:00 Myrtle Beach (29577) 3 + 8 + 25 = 36
12:00 Bluffton (29910) 0 + 0 + 8 = 8
12:00 Rock Hill (29730) 3 + 1 + 24 = 28
1/28 Saturday
1:00 Anderson (29621) 2 + 6 + 23 = 31
Tennessee
1/21 Saturday
9:00 Memphis (38133) 1 + 0 + 7 = 8
10:00 Memphis (38133) 5 + 3 + 32 = 40
10:00 Morristown (37813) 0 + 0 + 9 = 9
12:00 Sevierville (37862) 0 + 2 + 8 = 10
1:00 Chattanooga (37421) 6 + 8 + 19 = 33
1:00 Knoxville (37919) 23 + 9 + 31 = 63
2:00 Hendersonville (37075) 6 + 8 + 10 = 24
3:00 Kingsport (37660) 2 + 1 + 6 = 9
1/22 Sunday
12:00 Madison (37115) 8 + 11 + 42 = 61
1:00 Maryville (37801) 7 + 3 + 10 = 20
2:00 Chattanooga (37415) 1 + 1 + 9 = 11
2:00 Bristol (37620) 0 + 3 + 13 = 16
1/25 Wednesday
6:00 Knoxville (37924) 1 + 5 + 19 = 25
1/29 Sunday
12:00 Murfreesboro (37129) 6 + 8 + 26 = 40
Texas
1/21 Saturday
9:00 El Paso (79902) 3 + 2 + 38 = 43
10:00 Tyler (75701) 5 + 9 + 31 = 45
10:00 Houston (77098) 1 + 4 + 27 = 32
10:00 Austin (78757) 9 + 14 + 26 = 49
11:00 Tyler (75707) 2 + 6 + 8 = 16
12:00 Fort Worth (76244) 1 + 10 + 39 = 50
12:00 Conroe (77301) 0 + 0 + 14 = 14
12:00 Austin (78727) 6 + 6 + 32 = 44
12:00 Longview (75604) 4 + 1 + 17 = 22
12:00 Kingsland (78639) 1 + 0 + 11 = 12
12:00 Houston (77015) 0 + 2 + 22 = 24
12:00 Oak Ridge North (77385) 7 + 9 + 32 = 48
12:00 Lubbock (79412) 3 + 3 + 32 = 38
3:00 Weslaco (78596) 2 + 3 + 45 = 50
1/22 Sunday
9:00 AUSTIN (78747) 6 + 5 + 13 = 24
10:00 Austin (78757) 20 + 15 + 36 = 71
11:00 san antonio (78229) 7 + 16 + 97 = 120
11:00 Dallas (75247) 7 + 12 + 52 = 71
12:00 Cypress (77429) 5 + 8 + 33 = 46
12:00 Conroe (77301) 5 + 1 + 10 = 16
12:00 Sherman (75090) 1 + 5 + 15 = 21
12:00 New Braunfels (78130) 1 + 2 + 11 = 14
1:00 Fort Worth (76133) 11 + 8 + 27 = 46
1/23 Monday
5:00 Plano (75023) 5 + 9 + 28 = 42
6:30 Austin (78727) 0 + 1 + 15 = 16
1/25 Wednesday
6:00 Lubbock (79401) 3 + 1 + 16 = 20
1/26 Thursday
5:00 Houston (77015) 1 + 0 + 33 = 34
1/28 Saturday
8:30 McKinney (75070) 7 + 6 + 8 = 21
9:00 Plano (75023) 6 + 9 + 24 = 39
11:00 Tyler (75707) 1 + 4 + 15 = 20
11:00 Houston (77077) 9 + 8 + 17 = 34
11:00 Bedford (76021) 8 + 4 + 31 = 43
1:00 College Station (77840) 1 + 3 + 26 = 30
5:00 Longview (75604) 2 + 2 + 13 = 17
Utah
1/21 Saturday
9:00 Pleasant Grove (84062) 0 + 1 + 11 = 12
9:30 Salt Lake City (84106) 12 + 2 + 16 = 30
12:00 Spanish Fork (84660) 0 + 3 + 8 = 11
2:00 Sandy (84094) 0 + 3 + 7 = 10
2:30 Salt Lake City (84111) 1 + 0 + 7 = 8
5:30 West Jordan Utah (84088) 3 + 4 + 22 = 29
1/23 Monday
6:00 Lehi (84043) 2 + 2 + 17 = 21
6:30 Lehi (84043) 0 + 2 + 4 = 6
1/24 Tuesday
5:30 Midvale (84047) 5 + 1 + 16 = 22
1/25 Wednesday
5:00 Sandy (84094) 0 + 3 + 7 = 10
5:30 Layton (84041) 4 + 2 + 26 = 32
1/26 Thursday
5:30 Layton (84041) 3 + 3 + 11 = 17
1/27 Friday
5:30 Sandy (84070) 6 + 4 + 31 = 41
6:00 North Salt Lake (84054) 1 + 1 + 8 = 10
1/28 Saturday
12:00 Provo (84604) 1 + 0 + 17 = 18
1:30 Tooele (84074) 4 + 6 + 6 = 16
6:30 North Ogden (84414) 4 + 0 + 14 = 18
Vermont
1/27 Friday
6:00 Burlington (05401) 3 + 1 + 26 = 30
Virginia
1/20 Friday
12:00 Portsmouth (23701) 8 + 9 + 13 = 30
1/21 Saturday
10:00 Waynesboro (22980) 4 + 6 + 11 = 21
10:30 Fredericksburg (22401) 2 + 3 + 27 = 32
11:00 Richmond (23228) 4 + 9 + 23 = 36
11:00 Hampton (23669) 4 + 3 + 15 = 22
12:00 Chantilly (20151) 12 + 9 + 33 = 54
1:00 Roanoke (24012) 0 + 2 + 13 = 15
2:00 Gainesville (20155) 4 + 9 + 3 = 16
3:30 Chantilly (20151) 1 + 3 + 12 = 16
4:00 Virginia Beach (23452) 1 + 5 + 9 = 15
4:30 Richmond (23228) 5 + 8 + 19 = 32
5:00 Newport News (23608) 6 + 7 + 18 = 31
1/22 Sunday
11:00 Centreville (20120) 1 + 4 + 12 = 17
12:00 Norfolk (23503) 1 + 4 + 12 = 17
12:00 Fairfax (22031) 4 + 12 + 18 = 34
1:00 Lynchburg (24502) 4 + 2 + 13 = 19
1/23 Monday
3:45 Lexington (24450) 7 + 3 + 3 = 13
1/28 Saturday
10:00 Falls Church (22046) 22 + 12 + 30 = 64
12:00 Virginia Beach (23452) 3 + 4 + 9 = 16
12:00 Sterling (20165) 10 + 2 + 12 = 24
1:00 Yorktown (23692) 5 + 2 + 11 = 18
1/29 Sunday
12:30 Harrisonburg (22801) 9 + 13 + 28 = 50
2:45 Fincastle (24090) 2 + 3 + 16 = 21
4:00 Virginia Beach (23452) 0 + 1 + 7 = 8
Washington
1/21 Saturday
12:05 Lakewood (98499) 0 + 1 + 25 = 26
1:30 Lakewood (98499) 0 + 0 + 10 = 10
9:00 Edmonds (98026) 3 + 5 + 6 = 14
9:30 Seattle (98116) 9 + 6 + 13 = 28
10:00 Richland (99354) 6 + 3 + 29 = 38
10:00 Renton (98055) 15 + 14 + 35 = 64
10:00 Lacey (98503) 7 + 2 + 15 = 24
12:00 Marysville (98270) 0 + 3 + 11 = 14
12:00 Spokane (99201) 6 + 5 + 25 = 36
2:00 Edmonds (98026) 1 + 5 + 15 = 21
2:30 Richland (99354) 0 + 0 + 18 = 18
3:00 Marysville (98270) 2 + 2 + 6 = 10
4:00 Puyallup (98373) 7 + 5 + 15 = 27
1/22 Sunday
10:00 Edmonds (98026) 3 + 3 + 3 = 9
11:00 Spokane (99207) 12 + 16 + 55 = 83
11:00 Lakewood (98499) 1 + 6 + 19 = 26
11:00 Ellensburg (98926) 0 + 1 + 9 = 10
1:30 Grandview (98930) 1 + 4 + 11 = 16
3:00 Seattle (98107) 5 + 5 + 14 = 24
4:00 Lakewood (98499) 1 + 1 + 10 = 12
5:00 Anacortes (98221) 5 + 2 + 7 = 14
1/26 Thursday
6:00 Marysville (98270) 0 + 4 + 12 = 16
8:00 Marysville (98270) 2 + 2 + 8 = 12
1/29 Sunday
11:00 Bellevue (98005) 11 + 8 + 21 = 40
12:00 Bremerton (98337) 11 + 9 + 26 = 46
12:30 Mt Vernon (98273) 1 + 2 + 7 = 10
12:30 Seattle (98109) 18 + 9 + 13 = 40
5:00 Coupeville (98239) 2 + 4 + 8 = 14
West Virginia
1/21 Saturday
10:30 Parkersburg (26101) 8 + 8 + 21 = 37
1/28 Saturday
11:00 Morgantown (26501) 8 + 5 + 28 = 41
Wisconsin
1/21 Saturday
9:00 Green Bay (54304) 3 + 12 + 23 = 38
9:00 Appleton (54915) 3 + 8 + 24 = 35
10:00 Oconomowoc (53066) 6 + 3 + 24 = 33
11:00 La Crosse (54601) 16 + 12 + 12 = 40
12:00 Fond du Lac (54935) 2 + 6 + 8 = 16
1/22 Sunday
11:00 La Crosse (54601) 3 + 4 + 12 = 19
11:30 Stevens Point (54481) 3 + 1 + 12 = 16
12:00 Schofield (54476) 1 + 4 + 16 = 21
12:00 Janesville (53545) 1 + 1 + 16 = 18
12:00 Appleton (54914) 0 + 1 + 9 = 10
12:30 Oshkosh (54902) 3 + 4 + 21 = 28
12:30 Kenosha (53142) 2 + 1 + 23 = 26
12:30 Green Bay (54302) 5 + 3 + 18 = 26
1/24 Tuesday
3:00 Sheboygan (53081) 2 + 7 + 8 = 17
1/28 Saturday
11:00 La Crosse (54601) 12 + 6 + 10 = 28
12:30 Green Bay (54304) 0 + 2 + 17 = 19
1/29 Sunday
12:00 Madison (53719) 15 + 10 + 47 = 72
12:30 Green Bay (54302) 6 + 10 + 25 = 41
Wyoming
1/22 Sunday
1:00 Cheyenne (82001) 2 + 1 + 13 = 16